createdAt,value
2019-04-28T05:03:14.526Z,692.00
2019-04-28T05:04:14.995Z,728.00
2019-04-28T05:05:15.503Z,752.00
2019-04-28T05:06:15.928Z,772.00
2019-04-28T05:07:31.999Z,796.00
2019-04-28T05:08:32.453Z,828.00
2019-04-28T05:09:32.980Z,848.00
2019-04-28T05:10:33.404Z,868.00
2019-04-28T05:12:03.483Z,888.00
2019-04-28T05:13:03.909Z,920.00
2019-04-28T05:14:20.528Z,940.00
2019-04-28T05:15:20.968Z,972.00
2019-04-28T05:16:21.436Z,1000.00
2019-04-28T05:17:21.903Z,1028.00
2019-04-28T05:20:06.392Z,1124.00
2019-04-28T05:21:06.889Z,1164.00
2019-04-28T05:22:07.328Z,1208.00
2019-04-28T05:23:31.413Z,1256.00
2019-04-28T05:24:36.824Z,1328.00
2019-04-28T05:25:37.264Z,1380.00
2019-04-28T05:28:51.536Z,1528.00
2019-04-28T05:38:53.528Z,2012.00
2019-04-28T05:39:54.047Z,2068.00
2019-04-28T05:40:54.484Z,2116.00
2019-04-28T06:36:42.856Z,3276.00
2019-04-28T06:37:43.293Z,3332.00
2019-04-28T06:38:43.739Z,3356.00
2019-04-28T06:39:47.113Z,3348.00
2019-04-28T06:40:47.785Z,3356.00
2019-04-28T06:41:48.311Z,3356.00
2019-04-28T06:42:48.778Z,3348.00
2019-04-28T06:43:49.219Z,3356.00
2019-04-28T06:44:49.697Z,3348.00
2019-04-28T06:45:50.260Z,3352.00
2019-04-28T06:46:50.689Z,3336.00
2019-04-28T06:47:51.204Z,3344.00
2019-04-28T06:48:51.726Z,3336.00
2019-04-28T06:49:52.220Z,3332.00
2019-04-28T06:50:52.766Z,3320.00
2019-04-28T06:51:53.224Z,3304.00
2019-04-28T06:52:53.838Z,3280.00
2019-04-28T06:53:54.296Z,3236.00
2019-04-28T06:54:56.018Z,3176.00
2019-04-28T06:55:56.529Z,3132.00
2019-04-28T06:56:57.110Z,3128.00
2019-04-28T06:57:57.562Z,3136.00
2019-04-28T06:58:59.135Z,3160.00
2019-04-28T06:59:59.975Z,3188.00
2019-04-28T07:01:00.507Z,3128.00
2019-04-28T07:02:00.958Z,3108.00
2019-04-28T07:03:01.452Z,3128.00
2019-04-28T07:04:01.947Z,3152.00
2019-04-28T07:05:02.692Z,3204.00
2019-04-28T07:06:03.184Z,3284.00
2019-04-28T07:07:03.726Z,3396.00
2019-04-28T07:08:04.183Z,3476.00
2019-04-28T07:09:09.731Z,3572.00
2019-04-28T07:10:10.215Z,3636.00
2019-04-28T07:11:12.752Z,3756.00
2019-04-28T07:12:13.185Z,3820.00
2019-04-28T07:13:22.483Z,3804.00
2019-04-28T07:14:22.924Z,3924.00
2019-04-28T07:15:51.497Z,4136.00
2019-04-28T07:16:51.965Z,4112.00
2019-04-28T07:18:00.007Z,4216.00
2019-04-28T07:19:00.469Z,4552.00
2019-04-28T07:20:16.991Z,4428.00
2019-04-28T07:21:17.462Z,4264.00
2019-04-28T08:03:48.748Z,3884.00
2019-04-28T08:04:43.236Z,3928.00
2019-04-28T08:05:43.695Z,3860.00
2019-04-28T08:07:01.322Z,4028.00
2019-04-28T08:08:01.873Z,4236.00
2019-04-28T08:09:24.454Z,4496.00
2019-04-28T08:10:24.908Z,4636.00
2019-04-28T08:11:25.374Z,4636.00
2019-04-28T08:12:25.870Z,4520.00
2019-04-28T08:13:27.411Z,4384.00
2019-04-28T08:14:27.873Z,4272.00
2019-04-28T08:15:36.240Z,4240.00
2019-04-28T08:16:36.720Z,4180.00
2019-04-28T08:17:37.169Z,4184.00
2019-04-28T08:18:37.628Z,4224.00
2019-04-28T08:19:38.073Z,4164.00
2019-04-28T08:20:38.545Z,3952.00
2019-04-28T08:21:39.037Z,3680.00
2019-04-28T08:22:39.535Z,3552.00
2019-04-28T08:23:46.891Z,3432.00
2019-04-28T08:24:46.487Z,3184.00
2019-04-28T08:25:46.972Z,2952.00
2019-04-28T08:26:47.418Z,2764.00
2019-04-28T08:27:47.870Z,2648.00
2019-04-28T08:28:48.332Z,2532.00
2019-04-28T08:29:58.299Z,2388.00
2019-04-28T08:30:55.325Z,2332.00
2019-04-28T08:31:55.882Z,2192.00
2019-04-28T08:32:56.402Z,2104.00
2019-04-28T08:34:02.471Z,2024.00
2019-04-28T08:35:03.322Z,1992.00
2019-04-28T08:36:03.820Z,1912.00
2019-04-28T08:37:04.321Z,1912.00
2019-04-28T08:38:04.817Z,1912.00
2019-04-28T08:39:10.303Z,2044.00
2019-04-28T08:40:10.808Z,2148.00
2019-04-28T08:41:11.275Z,2172.00
2019-04-28T08:42:11.736Z,2076.00
2019-04-28T08:43:12.235Z,1940.00
2019-04-28T08:44:12.740Z,1836.00
2019-04-28T08:45:13.187Z,1832.00
2019-04-28T08:46:14.149Z,2016.00
2019-04-28T08:47:19.571Z,2284.00
2019-04-28T08:48:20.142Z,2348.00
2019-04-28T08:49:20.651Z,2416.00
2019-04-28T08:50:21.177Z,2668.00
2019-04-28T08:51:21.691Z,2948.00
2019-04-28T08:52:22.228Z,3316.00
2019-04-28T08:53:22.842Z,3700.00
2019-04-28T08:54:23.296Z,4220.00
2019-04-28T08:55:23.782Z,4764.00
2019-04-28T08:56:24.267Z,5380.00
2019-04-28T08:57:24.823Z,5976.00
2019-04-28T08:58:25.265Z,6520.00
2019-04-28T08:59:25.789Z,6940.00
2019-04-28T09:00:26.269Z,7400.00
2019-04-28T09:01:26.862Z,7912.00
2019-04-28T09:02:27.311Z,8264.00
2019-04-28T09:03:28.868Z,8620.00
2019-04-28T09:04:29.340Z,8856.00
2019-04-28T09:05:29.894Z,8792.00
2019-04-28T09:06:30.355Z,8568.00
2019-04-28T09:07:31.861Z,8248.00
2019-04-28T09:08:32.370Z,7788.00
2019-04-28T09:09:32.884Z,7672.00
2019-04-28T09:10:33.335Z,7392.00
2019-04-28T09:11:50.276Z,6792.00
2019-04-28T09:12:50.823Z,5584.00
2019-04-28T09:13:51.329Z,4336.00
2019-04-28T09:14:56.754Z,3396.00
2019-04-28T09:15:57.241Z,3612.00
2019-04-28T09:16:57.745Z,4380.00
2019-04-28T09:18:05.163Z,5996.00
2019-04-28T09:19:05.622Z,8468.00
2019-04-28T09:20:07.118Z,9936.00
2019-04-28T09:21:09.212Z,10260.00
2019-04-28T09:33:29.012Z,14180.00
2019-04-28T09:34:57.322Z,14640.00
2019-04-28T09:35:57.757Z,14844.00
2019-04-28T09:37:05.884Z,15120.00
2019-04-28T09:38:11.291Z,14504.00
2019-04-28T09:39:12.815Z,14460.00
2019-04-28T09:40:13.253Z,14108.00
2019-04-28T09:41:15.798Z,13524.00
2019-04-28T09:42:16.245Z,13828.00
2019-04-28T09:43:25.336Z,13956.00
2019-04-28T09:44:25.817Z,12968.00
2019-04-28T09:48:59.778Z,13728.00
2019-04-28T09:50:05.191Z,13604.00
2019-04-28T09:52:41.706Z,13588.00
2019-04-28T10:07:26.887Z,12728.00
2019-04-28T10:08:27.378Z,12700.00
2019-04-28T10:09:27.818Z,13072.00
2019-04-28T10:10:28.248Z,13408.00
2019-04-28T10:11:30.871Z,13808.00
2019-04-28T10:12:31.614Z,14732.00
2019-04-28T10:13:39.892Z,17056.00
2019-04-28T10:14:40.389Z,20224.00
2019-04-28T10:15:40.872Z,18080.00
2019-04-28T10:16:41.349Z,18144.00
2019-04-28T10:17:41.868Z,20096.00
2019-04-28T10:18:42.308Z,20608.00
2019-04-28T10:19:42.787Z,20800.00
2019-04-28T10:20:43.328Z,20480.00
2019-04-28T10:21:48.750Z,19968.00
2019-04-28T10:22:50.248Z,18528.00
2019-04-28T10:23:50.707Z,12896.00
2019-04-28T10:24:51.197Z,13504.00
2019-04-28T10:25:56.620Z,12224.00
2019-04-28T10:27:02.135Z,10196.00
2019-04-28T10:28:02.594Z,7084.00
2019-04-28T10:29:03.044Z,6692.00
2019-04-28T10:30:03.560Z,7132.00
2019-04-28T10:31:04.013Z,6108.00
2019-04-28T10:32:05.595Z,5740.00
2019-04-28T10:33:06.054Z,7008.00
2019-04-28T10:34:06.519Z,6328.00
2019-04-28T10:35:11.924Z,7312.00
2019-04-28T10:36:12.380Z,7768.00
2019-04-28T10:37:12.861Z,8076.00
2019-04-28T10:38:13.322Z,7700.00
2019-04-28T10:39:13.773Z,6984.00
2019-04-28T10:40:14.227Z,6892.00
2019-04-28T10:41:14.698Z,7868.00
2019-04-28T10:42:15.420Z,8940.00
2019-04-28T10:43:15.875Z,9604.00
2019-04-28T10:44:16.323Z,10424.00
2019-04-28T10:45:16.777Z,11808.00
2019-04-28T10:46:17.214Z,11460.00
2019-04-28T10:47:19.213Z,10504.00
2019-04-28T10:48:19.798Z,10124.00
2019-04-28T10:49:20.629Z,8676.00
2019-04-28T10:50:21.096Z,7752.00
2019-04-28T10:51:21.564Z,6652.00
2019-04-28T10:52:22.100Z,5764.00
2019-04-28T10:53:22.581Z,5808.00
2019-04-28T10:54:24.065Z,6256.00
2019-04-28T10:55:24.520Z,7004.00
2019-04-28T10:56:24.984Z,8832.00
2019-04-28T10:57:25.491Z,12240.00
2019-04-28T10:58:25.998Z,15204.00
2019-04-28T10:59:26.452Z,13980.00
2019-04-28T11:00:26.914Z,14576.00
2019-04-28T11:01:27.369Z,14712.00
2019-04-28T11:02:27.906Z,14924.00
2019-04-28T11:03:28.349Z,13316.00
2019-04-28T11:04:28.953Z,11056.00
2019-04-28T11:05:29.416Z,9700.00
2019-04-28T11:06:30.873Z,10936.00
2019-04-28T11:07:31.377Z,15516.00
2019-04-28T11:08:31.858Z,15028.00
2019-04-28T11:09:32.295Z,11944.00
2019-04-28T11:10:32.750Z,9236.00
2019-04-28T11:11:33.229Z,9732.00
2019-04-28T11:12:33.719Z,11652.00
2019-04-28T11:13:34.170Z,14564.00
2019-04-28T11:14:34.645Z,17920.00
2019-04-28T11:15:35.101Z,17632.00
2019-04-28T11:16:35.557Z,17056.00
2019-04-28T11:17:36.053Z,16228.00
2019-04-28T11:18:41.496Z,15248.00
2019-04-28T11:19:41.939Z,16268.00
2019-04-28T11:20:42.445Z,17408.00
2019-04-28T11:21:42.919Z,18176.00
2019-04-28T11:22:43.414Z,16512.00
2019-04-28T11:23:43.861Z,13820.00
2019-04-28T11:24:45.339Z,15648.00
2019-04-28T11:25:45.817Z,16672.00
2019-04-28T11:26:46.261Z,18208.00
2019-04-28T11:27:46.734Z,17600.00
2019-04-28T11:28:47.202Z,16472.00
2019-04-28T11:29:47.666Z,15932.00
2019-04-28T11:30:48.151Z,16124.00
2019-04-28T11:31:48.608Z,16072.00
2019-04-28T11:32:49.107Z,13616.00
2019-04-28T11:33:49.583Z,12948.00
2019-04-28T11:34:50.071Z,12968.00
2019-04-28T11:35:50.537Z,13476.00
2019-04-28T11:36:50.998Z,15684.00
2019-04-28T11:37:51.524Z,16800.00
2019-04-28T11:38:52.062Z,16704.00
2019-04-28T11:39:52.542Z,14816.00
2019-04-28T11:40:53.281Z,15148.00
2019-04-28T11:41:53.827Z,12656.00
2019-04-28T11:42:56.503Z,11372.00
2019-04-28T11:43:56.998Z,11300.00
2019-04-28T11:44:57.536Z,11424.00
2019-04-28T11:45:58.006Z,11536.00
2019-04-28T11:46:58.495Z,11648.00
2019-04-28T11:47:58.990Z,10724.00
2019-04-28T11:48:59.493Z,8040.00
2019-04-28T11:49:59.940Z,7252.00
2019-04-28T11:51:00.399Z,5512.00
2019-04-28T11:52:00.866Z,5660.00
2019-04-28T11:53:01.338Z,6108.00
2019-04-28T11:54:01.803Z,7772.00
2019-04-28T11:55:02.254Z,9516.00
2019-04-28T11:56:02.702Z,10732.00
2019-04-28T11:57:08.169Z,10792.00
2019-04-28T11:58:08.645Z,10700.00
2019-04-28T11:59:09.202Z,8828.00
2019-04-28T12:00:09.665Z,8492.00
2019-04-28T12:01:10.122Z,8756.00
2019-04-28T12:02:10.610Z,10204.00
2019-04-28T12:03:11.090Z,11320.00
2019-04-28T12:04:11.536Z,11228.00
2019-04-28T12:05:12.023Z,9244.00
2019-04-28T12:06:12.576Z,8992.00
2019-04-28T12:07:13.036Z,10892.00
2019-04-28T12:08:13.624Z,9448.00
2019-04-28T12:09:14.066Z,8528.00
2019-04-28T12:10:14.596Z,8204.00
2019-04-28T12:11:15.056Z,8368.00
2019-04-28T12:12:15.541Z,8408.00
2019-04-28T12:13:16.018Z,8128.00
2019-04-28T12:14:16.580Z,7228.00
2019-04-28T12:15:17.037Z,6576.00
2019-04-28T12:16:18.538Z,5768.00
2019-04-28T12:17:19.004Z,5240.00
2019-04-28T12:18:19.533Z,5016.00
2019-04-28T12:19:19.991Z,4600.00
2019-04-28T12:20:21.526Z,4260.00
2019-04-28T12:21:21.965Z,3972.00
2019-04-28T12:23:00.427Z,3948.00
2019-04-28T12:24:00.911Z,4068.00
2019-04-28T12:29:01.007Z,4692.00
2019-04-28T12:30:02.506Z,4976.00
2019-04-28T12:31:02.942Z,5260.00
2019-04-28T12:32:08.344Z,5400.00
2019-04-28T12:33:08.777Z,5420.00
2019-04-28T12:34:09.223Z,5348.00
2019-04-28T12:35:09.663Z,5204.00
2019-04-28T12:36:10.125Z,5152.00
2019-04-28T12:37:10.559Z,5164.00
2019-04-28T12:38:32.120Z,5332.00
2019-04-28T12:39:32.571Z,5728.00
2019-04-28T12:40:33.009Z,6044.00
2019-04-28T12:41:33.443Z,6380.00
2019-04-28T12:42:33.898Z,6760.00
2019-04-28T12:43:39.422Z,7264.00
2019-04-28T12:44:39.871Z,7672.00
2019-04-28T12:45:42.445Z,7940.00
2019-04-28T12:46:42.891Z,8304.00
2019-04-28T12:47:43.326Z,8504.00
2019-04-28T12:48:43.774Z,8556.00
2019-04-28T12:49:52.111Z,8676.00
2019-04-28T12:50:52.630Z,8832.00
2019-04-28T12:52:02.046Z,8904.00
2019-04-28T12:53:02.483Z,8880.00
2019-04-28T12:54:08.194Z,8664.00
2019-04-28T12:55:08.712Z,8312.00
2019-04-28T12:56:09.237Z,7892.00
2019-04-28T12:57:09.675Z,7488.00
2019-04-28T12:58:18.065Z,7120.00
2019-04-28T12:59:18.554Z,6876.00
2019-04-28T13:00:20.023Z,6836.00
2019-04-28T13:01:20.526Z,6932.00
2019-04-28T13:02:21.167Z,7068.00
2019-04-28T13:03:21.658Z,7148.00
2019-04-28T13:04:22.121Z,7220.00
2019-04-28T13:05:22.584Z,7304.00
2019-04-28T13:06:23.128Z,7444.00
2019-04-28T13:07:23.573Z,7640.00
2019-04-28T13:08:24.065Z,7852.00
2019-04-28T13:09:24.559Z,8036.00
2019-04-28T13:10:25.097Z,8192.00
2019-04-28T13:11:25.680Z,8356.00
2019-04-28T13:12:33.150Z,8600.00
2019-04-28T13:13:33.657Z,8896.00
2019-04-28T13:14:49.151Z,9164.00
2019-04-28T13:15:49.592Z,9588.00
2019-04-28T13:17:05.070Z,9964.00
2019-04-28T13:18:05.500Z,10364.00
2019-04-28T13:19:05.940Z,10724.00
2019-04-28T13:20:06.382Z,11204.00
2019-04-28T13:21:15.558Z,11800.00
2019-04-28T13:22:15.987Z,12480.00
2019-04-28T13:23:17.522Z,13000.00
2019-04-28T13:24:18.001Z,13576.00
2019-04-28T13:25:40.563Z,14108.00
2019-04-28T13:26:41.038Z,13632.00
2019-04-28T13:28:05.569Z,13340.00
2019-04-28T13:29:06.079Z,13252.00
2019-04-28T13:30:06.588Z,12688.00
2019-04-28T13:31:09.036Z,12336.00
2019-04-28T13:32:09.705Z,11892.00
2019-04-28T13:33:10.159Z,11316.00
2019-04-28T13:34:10.650Z,10664.00
2019-04-28T13:35:11.194Z,10052.00
2019-04-28T13:36:15.050Z,9528.00
2019-04-28T13:37:15.889Z,9056.00
2019-04-28T13:38:16.342Z,8684.00
2019-04-28T13:39:16.824Z,8344.00
2019-04-28T13:40:18.389Z,8028.00
2019-04-28T13:41:18.891Z,7696.00
2019-04-28T13:42:19.421Z,7372.00
2019-04-28T13:43:19.860Z,7080.00
2019-04-28T13:44:25.434Z,6808.00
2019-04-28T13:45:25.912Z,6684.00
2019-04-28T13:46:32.462Z,6772.00
2019-04-28T13:47:32.912Z,6968.00
2019-04-28T13:48:33.491Z,7232.00
2019-04-28T13:49:33.967Z,7512.00
2019-04-28T13:50:34.448Z,7712.00
2019-04-28T13:51:39.957Z,7904.00
2019-04-28T13:52:40.435Z,8252.00
2019-04-28T13:53:41.084Z,8736.00
2019-04-28T13:54:41.602Z,9172.00
2019-04-28T13:55:47.060Z,9536.00
2019-04-28T13:56:47.518Z,9680.00
2019-04-28T13:57:48.076Z,9612.00
2019-04-28T13:58:48.535Z,9352.00
2019-04-28T13:59:49.271Z,8976.00
2019-04-28T14:00:49.730Z,7840.00
2019-04-28T14:01:50.332Z,7688.00
2019-04-28T14:02:50.889Z,7652.00
2019-04-28T14:03:51.662Z,7756.00
2019-04-28T14:04:53.222Z,7812.00
2019-04-28T14:05:53.675Z,7896.00
2019-04-28T14:06:54.249Z,8040.00
2019-04-28T14:07:54.709Z,8196.00
2019-04-28T14:09:00.192Z,8296.00
2019-04-28T14:10:00.658Z,8024.00
2019-04-28T14:11:01.143Z,7968.00
2019-04-28T14:12:01.761Z,7892.00
2019-04-28T14:13:02.240Z,7412.00
2019-04-28T14:14:02.838Z,7848.00
2019-04-28T14:15:04.377Z,7744.00
2019-04-28T14:16:04.844Z,7588.00
2019-04-28T14:17:05.400Z,7388.00
2019-04-28T14:18:05.876Z,7240.00
2019-04-28T14:19:06.412Z,7136.00
2019-04-28T14:20:06.926Z,7140.00
2019-04-28T14:21:08.015Z,7116.00
2019-04-28T14:22:08.715Z,7156.00
2019-04-28T14:23:09.174Z,7128.00
2019-04-28T14:24:09.713Z,7140.00
2019-04-28T14:25:10.281Z,7080.00
2019-04-28T14:26:10.754Z,7024.00
2019-04-28T14:27:11.225Z,6980.00
2019-04-28T14:28:11.791Z,6880.00
2019-04-28T14:29:12.217Z,6780.00
2019-04-28T14:30:12.795Z,6644.00
2019-04-28T14:31:13.250Z,6552.00
2019-04-28T14:33:34.029Z,6140.00
2019-04-28T14:34:34.587Z,5812.00
2019-04-28T14:35:35.067Z,5512.00
2019-04-28T14:36:42.245Z,5316.00
2019-04-28T14:37:42.008Z,5196.00
2019-04-28T14:38:43.199Z,5120.00
2019-04-28T14:39:43.757Z,5044.00
2019-04-28T14:40:44.223Z,5040.00
2019-04-28T14:41:44.669Z,4292.00
2019-04-28T14:42:46.188Z,4376.00
2019-04-28T14:43:46.614Z,4612.00
2019-04-28T14:44:47.142Z,1520.00
2019-04-28T14:45:47.626Z,2924.00
2019-04-28T14:46:48.138Z,3044.00
2019-04-28T14:47:48.562Z,3032.00
2019-04-28T14:48:49.071Z,2972.00
2019-04-28T14:49:49.524Z,2904.00
2019-04-28T14:50:50.031Z,2836.00
2019-04-28T14:51:50.464Z,2884.00
2019-04-28T14:52:50.934Z,2908.00
2019-04-28T14:53:51.386Z,2932.00
2019-04-28T14:54:51.940Z,2944.00
2019-04-28T14:55:52.456Z,2936.00
2019-04-28T14:56:53.011Z,2904.00
2019-04-28T14:57:53.448Z,2896.00
2019-04-28T15:02:31.875Z,2932.00
2019-04-28T15:03:32.341Z,2948.00
2019-04-28T15:04:34.887Z,2920.00
2019-04-28T15:05:35.449Z,2840.00
2019-04-28T15:06:35.946Z,2744.00
2019-04-28T15:07:36.556Z,2652.00
2019-04-28T15:08:37.155Z,2584.00
2019-04-28T15:09:37.652Z,2088.00
2019-04-28T15:10:43.562Z,2048.00
2019-04-28T15:11:44.013Z,2008.00
2019-04-28T15:12:44.563Z,1980.00
2019-04-28T15:13:45.007Z,1944.00
2019-04-28T15:14:45.537Z,1956.00
2019-04-28T15:15:46.075Z,1980.00
2019-04-28T15:16:53.494Z,2048.00
2019-04-28T15:17:53.958Z,2156.00
2019-04-28T15:18:56.491Z,2224.00
2019-04-28T15:19:57.073Z,2248.00
2019-04-28T15:20:58.551Z,2176.00
2019-04-28T15:21:58.975Z,2156.00
2019-04-28T15:23:07.068Z,2132.00
2019-04-28T15:24:07.510Z,2184.00
2019-04-28T15:25:11.507Z,2292.00
2019-04-28T15:26:11.946Z,2420.00
2019-04-28T15:27:12.384Z,2504.00
2019-04-28T15:28:14.867Z,2540.00
2019-04-28T15:29:15.306Z,2512.00
2019-04-28T15:30:15.849Z,2472.00
2019-04-28T15:31:16.279Z,2448.00
2019-04-28T15:32:16.731Z,3000.00
2019-04-28T15:33:17.193Z,3104.00
2019-04-28T15:34:17.671Z,3176.00
2019-04-28T15:35:18.140Z,3260.00
2019-04-28T15:36:18.660Z,3324.00
2019-04-28T15:37:24.072Z,3352.00
2019-04-28T15:38:24.514Z,3320.00
2019-04-28T15:39:25.020Z,3208.00
2019-04-28T15:40:25.466Z,3052.00
2019-04-28T15:41:30.866Z,2908.00
2019-04-28T15:42:31.412Z,2860.00
2019-04-28T15:43:34.479Z,2860.00
2019-04-28T15:44:35.117Z,2876.00
2019-04-28T15:45:35.592Z,2928.00
2019-04-28T15:46:36.030Z,2976.00
2019-04-28T15:47:36.481Z,3012.00
2019-04-28T15:48:36.942Z,3036.00
2019-04-28T15:49:37.375Z,3080.00
2019-04-28T15:50:37.835Z,3128.00
2019-04-28T15:51:38.281Z,3196.00
2019-04-28T15:52:38.710Z,3252.00
2019-04-28T15:53:39.152Z,3280.00
2019-04-28T15:54:39.613Z,3284.00
2019-04-28T15:55:40.105Z,3276.00
2019-04-28T15:56:45.496Z,3252.00
2019-04-28T15:57:45.960Z,3184.00
2019-04-28T15:58:46.404Z,3144.00
2019-04-28T15:59:46.851Z,3080.00
2019-04-28T16:00:47.308Z,3004.00
2019-04-28T16:01:47.745Z,2884.00
2019-04-28T16:02:48.184Z,2716.00
2019-04-28T16:03:48.652Z,2540.00
2019-04-28T16:04:49.087Z,2320.00
2019-04-28T16:05:54.530Z,2064.00
2019-04-28T16:06:54.978Z,1812.00
2019-04-28T16:07:55.414Z,1576.00
2019-04-28T16:08:55.870Z,1368.00
2019-04-28T16:09:56.342Z,1224.00
2019-04-28T16:10:56.802Z,1168.00
2019-04-28T16:11:57.241Z,1128.00
2019-04-28T16:12:57.768Z,1056.00
2019-04-28T16:13:58.239Z,976.00
2019-04-28T16:14:58.732Z,920.00
2019-04-28T16:15:59.224Z,896.00
2019-04-28T16:16:59.658Z,888.00
2019-04-28T16:18:00.106Z,916.00
2019-04-28T16:19:00.657Z,952.00
2019-04-28T16:20:01.091Z,988.00
2019-04-28T16:21:01.581Z,1012.00
2019-04-28T16:22:02.001Z,1008.00
2019-04-28T16:23:02.479Z,976.00
2019-04-28T16:24:02.902Z,944.00
2019-04-28T16:25:03.348Z,916.00
2019-04-28T16:26:03.818Z,896.00
2019-04-28T16:27:04.282Z,892.00
2019-04-28T16:28:04.724Z,904.00
2019-04-28T16:29:05.181Z,904.00
2019-04-28T16:30:10.903Z,896.00
2019-04-28T16:31:11.435Z,888.00
2019-04-28T16:32:11.875Z,880.00
2019-04-28T16:33:12.308Z,868.00
2019-04-28T16:34:12.732Z,856.00
2019-04-28T16:35:42.034Z,852.00
2019-04-28T16:36:42.486Z,828.00
2019-04-28T16:37:43.943Z,816.00
2019-04-28T16:38:44.375Z,804.00
2019-04-28T16:39:45.922Z,792.00
2019-04-28T16:40:46.396Z,784.00
2019-04-28T16:42:02.499Z,788.00
2019-04-28T16:43:03.141Z,784.00
2019-04-28T16:44:11.532Z,776.00
2019-04-28T16:45:11.974Z,768.00
2019-04-28T16:46:24.070Z,756.00
2019-04-28T16:47:24.507Z,744.00
2019-04-28T17:19:34.254Z,560.00
2019-04-28T17:20:34.687Z,552.00
2019-04-28T17:21:35.250Z,540.00
2019-04-28T17:22:35.692Z,536.00
2019-04-28T17:23:36.136Z,528.00
2019-04-28T17:24:36.576Z,516.00
2019-04-28T17:25:37.018Z,512.00
2019-04-28T17:26:37.751Z,508.00
2019-04-28T17:27:43.161Z,496.00
2019-04-28T17:28:43.597Z,488.00
2019-04-28T17:29:44.071Z,476.00
2019-04-28T17:30:44.530Z,464.00
2019-04-28T17:31:45.017Z,456.00
2019-04-28T17:32:45.478Z,452.00
2019-04-28T17:33:50.899Z,448.00
2019-04-28T17:34:51.355Z,444.00
2019-04-28T17:35:51.809Z,440.00
2019-04-28T17:36:52.292Z,432.00
2019-04-28T17:38:05.835Z,432.00
2019-04-28T17:38:59.161Z,420.00
2019-04-28T17:39:59.633Z,416.00
2019-04-28T17:41:00.105Z,408.00
2019-04-28T17:42:00.569Z,404.00
2019-04-28T17:43:01.080Z,404.00
2019-04-28T17:44:01.539Z,400.00
2019-04-28T17:45:02.128Z,396.00
2019-04-28T17:46:02.600Z,396.00
2019-04-28T17:47:03.184Z,392.00
2019-04-28T17:48:03.639Z,388.00
2019-04-28T17:49:04.270Z,384.00
2019-04-28T17:50:04.719Z,380.00
2019-04-28T17:51:05.216Z,372.00
2019-04-28T17:52:05.683Z,364.00
2019-04-28T17:53:06.152Z,356.00
2019-04-28T17:54:06.617Z,348.00
2019-04-28T17:55:07.095Z,340.00
2019-04-28T17:56:07.546Z,336.00
2019-04-28T17:57:08.063Z,328.00
2019-04-28T17:58:08.527Z,324.00
2019-04-28T17:59:13.986Z,316.00
2019-04-28T18:00:14.452Z,308.00
2019-04-28T18:01:15.311Z,300.00
2019-04-28T18:02:15.877Z,292.00
2019-04-28T18:03:16.359Z,288.00
2019-04-28T18:04:16.829Z,280.00
2019-04-28T18:05:17.398Z,276.00
2019-04-28T18:06:18.474Z,268.00
2019-04-28T18:07:19.098Z,264.00
2019-04-28T18:08:21.299Z,260.00
2019-04-28T18:09:21.972Z,256.00
2019-04-28T18:10:22.438Z,244.00
2019-04-28T18:11:22.973Z,240.00
2019-04-28T18:12:23.449Z,232.00
2019-04-28T18:13:24.002Z,228.00
2019-04-28T18:14:24.461Z,220.00
2019-04-28T18:15:24.903Z,212.00
2019-04-28T18:16:25.395Z,208.00
2019-04-28T18:17:25.961Z,200.00
2019-04-28T18:18:26.438Z,196.00
2019-04-28T18:19:26.914Z,188.00
2019-04-28T18:20:27.406Z,180.00
2019-04-28T18:21:27.871Z,172.00
2019-04-28T18:22:28.350Z,172.00
2019-04-28T18:23:28.895Z,164.00
2019-04-28T18:24:29.332Z,160.00
2019-04-28T18:25:34.857Z,148.00
2019-04-28T18:26:35.311Z,144.00
2019-04-28T18:27:35.790Z,140.00
2019-04-28T18:28:36.230Z,136.00
2019-04-28T18:29:44.268Z,128.00
2019-04-28T18:30:44.740Z,120.00
2019-04-28T18:31:45.369Z,116.00
2019-04-28T18:32:45.839Z,112.00
2019-04-28T18:33:54.302Z,104.00
2019-04-28T18:34:54.764Z,100.00
2019-04-28T18:35:57.325Z,96.00
2019-04-28T18:36:57.810Z,92.00
2019-04-28T19:23:46.779Z,0.00
2019-04-28T19:24:47.212Z,0.00
2019-04-28T19:25:47.639Z,0.00
2019-04-28T19:26:48.070Z,0.00
2019-04-28T19:27:48.651Z,0.00
2019-04-28T19:28:49.103Z,0.00
2019-04-28T19:29:49.535Z,0.00
2019-04-28T19:30:49.972Z,0.00
2019-04-28T19:31:50.409Z,0.00
2019-04-28T19:32:50.859Z,0.00
2019-04-28T19:33:53.850Z,0.00
2019-04-28T19:34:59.926Z,0.00
2019-04-28T19:36:00.556Z,0.00
2019-04-28T19:37:02.276Z,0.00
2019-04-28T19:38:04.909Z,0.00
2019-04-28T19:39:05.379Z,0.00
2019-04-28T19:40:05.831Z,0.00
2019-04-28T19:41:06.265Z,0.00
2019-04-28T19:42:06.714Z,0.00
2019-04-28T19:43:07.205Z,0.00
2019-04-28T19:44:07.713Z,0.00
2019-04-28T19:45:08.153Z,0.00
2019-04-28T19:46:08.651Z,0.00
2019-04-28T19:47:09.179Z,0.00
2019-04-28T19:48:09.668Z,0.00
2019-04-28T19:49:10.136Z,0.00
2019-04-28T19:50:10.561Z,0.00
2019-04-28T19:51:11.049Z,0.00
2019-04-28T19:52:11.493Z,0.00
2019-04-28T19:53:13.042Z,0.00
2019-04-28T19:54:13.498Z,0.00
2019-04-28T19:55:19.271Z,0.00
2019-04-28T19:56:19.701Z,0.00
2019-04-28T19:57:20.210Z,0.00
2019-04-28T19:58:20.678Z,0.00
2019-04-28T19:59:22.170Z,0.00
2019-04-28T20:00:22.606Z,0.00
2019-04-28T20:01:23.105Z,0.00
2019-04-28T20:06:46.902Z,0.00
2019-04-28T20:07:47.361Z,0.00
2019-04-28T20:08:47.824Z,0.00
2019-04-28T20:09:48.255Z,0.00
2019-04-28T20:10:48.687Z,0.00
2019-04-28T20:11:49.122Z,0.00
2019-04-28T20:12:59.760Z,0.00
2019-04-28T20:14:00.219Z,0.00
2019-04-28T20:15:00.654Z,0.00
2019-04-28T20:16:01.105Z,0.00
2019-04-28T20:17:01.572Z,0.00
2019-04-28T20:18:02.153Z,0.00
2019-04-28T20:19:02.589Z,0.00
2019-04-28T20:20:03.048Z,0.00
2019-04-28T20:21:03.490Z,0.00
2019-04-28T20:22:03.975Z,0.00
2019-04-28T20:23:04.427Z,0.00
2019-04-28T20:24:04.930Z,0.00
2019-04-28T20:25:05.377Z,0.00
2019-04-28T20:26:05.862Z,0.00
2019-04-28T20:27:06.293Z,0.00
2019-04-28T20:28:06.824Z,0.00
2019-04-28T20:29:07.288Z,0.00
2019-04-28T20:30:08.028Z,0.00
2019-04-28T20:31:08.468Z,0.00
2019-04-28T20:32:08.959Z,0.00
2019-04-28T20:33:09.407Z,0.00
2019-04-28T20:34:09.892Z,0.00
2019-04-28T20:35:10.324Z,0.00
2019-04-28T20:36:10.833Z,0.00
2019-04-28T20:37:11.299Z,0.00
2019-04-28T20:38:11.807Z,0.00
2019-04-28T20:39:12.273Z,0.00
2019-04-28T20:40:12.806Z,0.00
2019-04-28T20:41:13.259Z,0.00
2019-04-28T20:42:13.735Z,0.00
2019-04-28T20:43:14.183Z,0.00
2019-04-28T20:44:14.674Z,0.00
2019-04-28T20:45:15.109Z,0.00
2019-04-28T20:46:15.610Z,0.00
2019-04-28T20:47:16.041Z,0.00
2019-04-28T20:48:16.586Z,0.00
2019-04-28T20:49:17.175Z,0.00
2019-04-28T20:50:17.681Z,0.00
2019-04-28T20:51:18.105Z,0.00
2019-04-28T20:52:18.619Z,0.00
2019-04-28T20:53:19.489Z,0.00
2019-04-28T20:54:20.070Z,0.00
2019-04-28T20:55:20.519Z,0.00
2019-04-28T20:56:21.003Z,0.00
2019-04-28T20:57:21.427Z,0.00
2019-04-28T20:58:21.983Z,0.00
2019-04-28T20:59:22.426Z,0.00
2019-04-28T21:00:22.988Z,0.00
2019-04-28T21:01:23.442Z,0.00
2019-04-28T21:02:23.912Z,0.00
2019-04-28T21:03:24.361Z,0.00
2019-04-28T21:04:25.872Z,0.00
2019-04-28T21:05:26.337Z,0.00
2019-04-28T21:06:26.904Z,0.00
2019-04-28T21:07:27.340Z,0.00
2019-04-28T21:08:27.820Z,0.00
2019-04-28T21:09:28.277Z,0.00
2019-04-28T21:10:37.656Z,0.00
2019-04-28T21:11:35.440Z,0.00
2019-04-28T21:12:35.872Z,0.00
2019-04-28T21:13:36.339Z,0.00
2019-04-28T21:14:36.778Z,0.00
2019-04-28T21:15:37.309Z,0.00
2019-04-28T21:16:37.738Z,0.00
2019-04-28T21:17:38.171Z,0.00
2019-04-28T21:18:38.617Z,0.00
2019-04-28T21:19:39.082Z,0.00
2019-04-28T21:20:39.520Z,0.00
2019-04-28T21:21:40.014Z,0.00
2019-04-28T21:22:40.452Z,0.00
2019-04-28T21:23:40.994Z,0.00
2019-04-28T21:24:41.421Z,0.00
2019-04-28T21:25:41.933Z,0.00
2019-04-28T21:26:42.376Z,0.00
2019-04-28T21:27:42.890Z,0.00
2019-04-28T21:28:43.365Z,0.00
2019-04-28T21:29:43.906Z,0.00